createdAt,value
2017-07-23T00:00:44.758Z,18.10
2017-07-23T00:03:12.794Z,18.10
2017-07-23T00:05:40.839Z,18.10
2017-07-23T00:08:16.613Z,18.10
2017-07-23T00:10:44.638Z,18.10
2017-07-23T00:13:14.558Z,18.10
2017-07-23T00:15:42.613Z,18.10
2017-07-23T00:18:12.558Z,18.10
2017-07-23T00:20:40.594Z,18.20
2017-07-23T00:23:08.642Z,18.30
2017-07-23T00:25:37.558Z,18.40
2017-07-23T00:28:05.594Z,18.50
2017-07-23T00:30:35.550Z,18.60
2017-07-23T00:33:05.521Z,18.60
2017-07-23T00:35:34.509Z,18.70
2017-07-23T00:38:02.553Z,18.70
2017-07-23T00:40:31.481Z,18.70
2017-07-23T00:43:00.410Z,18.70
2017-07-23T00:45:30.422Z,18.80
2017-07-23T00:47:58.433Z,18.80
2017-07-23T00:50:29.505Z,18.80
2017-07-23T00:52:59.437Z,18.80
2017-07-23T00:55:27.482Z,18.80
2017-07-23T00:57:56.406Z,18.90
2017-07-23T01:00:25.337Z,18.90
2017-07-23T01:02:53.365Z,18.80
2017-07-23T01:05:25.649Z,18.70
2017-07-23T01:08:01.937Z,18.60
2017-07-23T01:10:30.893Z,18.70
2017-07-23T01:13:00.885Z,18.70
2017-07-23T01:15:30.834Z,18.70
2017-07-23T01:18:00.761Z,18.60
2017-07-23T01:20:28.822Z,18.70
2017-07-23T01:23:08.929Z,18.70
2017-07-23T01:25:36.970Z,18.70
2017-07-23T01:28:04.997Z,18.80
2017-07-23T01:30:34.945Z,18.80
2017-07-23T01:33:04.865Z,18.80
2017-07-23T01:35:32.898Z,18.80
2017-07-23T01:38:02.721Z,18.80
2017-07-23T01:40:35.061Z,18.80
2017-07-23T01:43:03.109Z,18.80
2017-07-23T01:45:31.133Z,18.80
2017-07-23T01:48:02.501Z,18.80
2017-07-23T01:50:35.052Z,18.80
2017-07-23T01:53:06.642Z,18.80
2017-07-23T01:55:35.677Z,18.70
2017-07-23T01:58:16.245Z,18.70
2017-07-23T02:00:45.025Z,18.60
2017-07-23T02:03:15.057Z,18.50
2017-07-23T02:05:43.105Z,18.50
2017-07-23T02:08:14.345Z,18.30
2017-07-23T02:10:43.360Z,18.20
2017-07-23T02:13:11.405Z,18.20
2017-07-23T02:15:41.336Z,18.00
2017-07-23T02:18:20.538Z,17.90
2017-07-23T02:20:51.597Z,17.80
2017-07-23T02:23:24.145Z,17.70
2017-07-23T02:25:57.717Z,17.70
2017-07-23T02:28:25.765Z,17.60
2017-07-23T02:30:53.816Z,17.50
2017-07-23T02:33:23.844Z,17.40
2017-07-23T02:35:55.496Z,17.40
2017-07-23T02:38:23.528Z,17.30
2017-07-23T02:40:54.920Z,17.30
2017-07-23T02:43:22.961Z,17.20
2017-07-23T02:45:56.993Z,17.20
2017-07-23T02:48:25.013Z,17.20
2017-07-23T02:50:53.061Z,17.20
2017-07-23T02:53:21.136Z,17.20
2017-07-23T02:56:10.037Z,17.20
2017-07-23T02:58:46.308Z,17.10
2017-07-23T03:01:14.344Z,17.10
2017-07-23T03:03:47.109Z,17.10
2017-07-23T03:06:18.772Z,17.10
2017-07-23T03:08:48.880Z,17.10
2017-07-23T03:11:16.920Z,17.10
2017-07-23T03:13:53.492Z,17.10
2017-07-23T03:16:27.528Z,17.00
2017-07-23T03:18:57.560Z,17.00
2017-07-23T03:21:27.548Z,17.00
2017-07-23T03:23:55.596Z,17.00
2017-07-23T03:26:24.632Z,17.00
2017-07-23T03:28:59.612Z,17.00
2017-07-23T03:31:28.672Z,17.10
2017-07-23T03:34:02.110Z,17.10
2017-07-23T03:36:34.272Z,17.20
2017-07-23T03:39:10.536Z,17.20
2017-07-23T03:41:39.580Z,17.20
2017-07-23T03:44:32.084Z,17.20
2017-07-23T03:47:18.344Z,17.20
2017-07-23T03:49:48.320Z,17.20
2017-07-23T03:52:42.256Z,17.10
2017-07-23T03:55:29.664Z,17.10
2017-07-23T04:01:09.244Z,17.10
2017-07-23T04:04:08.948Z,17.10
2017-07-23T04:06:55.260Z,17.00
2017-07-23T04:12:25.955Z,17.00
2017-07-23T04:14:59.568Z,17.00
2017-07-23T04:17:46.903Z,17.00
2017-07-23T04:23:25.019Z,17.00
2017-07-23T04:26:05.525Z,17.00
2017-07-23T04:34:30.551Z,17.00
2017-07-23T04:36:59.615Z,17.00
2017-07-23T04:39:31.258Z,17.10
2017-07-23T04:42:04.863Z,17.10
2017-07-23T04:47:32.763Z,17.10
2017-07-23T04:50:14.143Z,17.10
2017-07-23T04:52:42.207Z,17.10
2017-07-23T04:58:04.967Z,17.10
2017-07-23T05:03:28.247Z,17.10
2017-07-23T05:23:20.819Z,17.00
2017-07-23T05:26:07.643Z,17.00
2017-07-23T05:37:31.842Z,17.00
2017-07-23T05:48:55.554Z,17.40
2017-07-23T05:51:30.318Z,17.60
2017-07-23T05:54:00.303Z,17.60
2017-07-23T05:56:39.286Z,17.70
2017-07-23T05:59:19.055Z,17.80
2017-07-23T06:02:06.242Z,18.00
2017-07-23T06:07:41.706Z,19.00
2017-07-23T06:13:16.542Z,19.40
2017-07-23T06:15:55.618Z,20.00
2017-07-23T06:18:37.970Z,20.60
2017-07-23T06:24:07.630Z,21.00
2017-07-23T06:44:19.937Z,19.30
2017-07-23T06:58:26.842Z,18.10
2017-07-23T07:01:01.566Z,17.90
2017-07-23T07:03:35.429Z,17.90
2017-07-23T07:06:23.049Z,17.90
2017-07-23T07:09:01.270Z,17.90
2017-07-23T07:11:30.322Z,17.90
2017-07-23T07:14:09.158Z,17.90
2017-07-23T07:16:52.182Z,18.00
2017-07-23T07:19:40.446Z,18.00
2017-07-23T07:22:08.754Z,18.00
2017-07-23T07:24:36.770Z,17.90
2017-07-23T07:27:08.398Z,17.70
2017-07-23T07:29:38.210Z,17.50
2017-07-23T07:32:13.622Z,17.30
2017-07-23T07:34:41.657Z,17.30
2017-07-23T07:37:22.846Z,17.20
2017-07-23T07:39:52.790Z,17.00
2017-07-23T07:42:22.766Z,16.90
2017-07-23T07:44:50.782Z,16.90
2017-07-23T07:47:20.713Z,16.90
2017-07-23T07:49:51.953Z,16.90
2017-07-23T07:52:21.949Z,17.00
2017-07-23T07:54:50.881Z,17.10
2017-07-23T07:57:19.797Z,17.20
2017-07-23T07:59:56.341Z,17.40
2017-07-23T08:02:26.273Z,17.50
2017-07-23T08:04:54.305Z,17.70
2017-07-23T08:07:26.749Z,17.80
2017-07-23T08:09:56.661Z,18.00
2017-07-23T08:12:25.594Z,18.20
2017-07-23T08:14:55.388Z,18.30
2017-07-23T08:17:24.297Z,18.20
2017-07-23T08:20:16.912Z,18.10
2017-07-23T08:22:44.948Z,18.00
2017-07-23T08:25:19.068Z,18.10
2017-07-23T08:27:47.088Z,18.30
2017-07-23T08:30:21.569Z,18.50
2017-07-23T08:32:55.353Z,19.10
2017-07-23T08:35:26.321Z,19.90
2017-07-23T08:37:57.777Z,20.30
2017-07-23T08:40:25.820Z,20.70
2017-07-23T08:42:59.873Z,21.20
2017-07-23T08:45:27.900Z,21.00
2017-07-23T08:47:55.920Z,21.00
2017-07-23T08:50:23.944Z,21.10
2017-07-23T08:52:51.969Z,21.10
2017-07-23T08:55:21.264Z,21.00
2017-07-23T08:57:50.133Z,20.80
2017-07-23T09:00:21.572Z,20.70
2017-07-23T09:03:00.825Z,20.70
2017-07-23T09:05:34.788Z,21.00
2017-07-23T09:08:04.708Z,21.30
2017-07-23T09:10:36.624Z,21.60
2017-07-23T09:13:07.301Z,21.30
2017-07-23T09:15:36.237Z,21.20
2017-07-23T09:18:05.020Z,21.30
2017-07-23T09:20:43.016Z,21.30
2017-07-23T09:23:11.048Z,21.50
2017-07-23T09:25:39.068Z,21.70
2017-07-23T09:28:25.956Z,22.10
2017-07-23T09:30:55.880Z,22.50
2017-07-23T09:33:25.804Z,22.90
2017-07-23T09:35:54.729Z,23.60
2017-07-23T09:38:24.712Z,24.00
2017-07-23T09:40:55.860Z,24.20
2017-07-23T09:43:26.540Z,24.30
2017-07-23T09:45:58.353Z,24.20
2017-07-23T09:48:27.372Z,24.30
2017-07-23T09:51:00.640Z,24.50
2017-07-23T09:53:33.300Z,23.90
2017-07-23T09:56:03.572Z,23.90
2017-07-23T09:58:36.700Z,23.50
2017-07-23T10:01:06.744Z,23.80
2017-07-23T10:03:34.876Z,24.20
2017-07-23T10:06:03.747Z,24.40
2017-07-23T10:08:31.772Z,24.10
2017-07-23T10:10:59.795Z,24.80
2017-07-23T10:13:27.819Z,25.40
2017-07-23T10:15:56.748Z,25.80
2017-07-23T10:18:25.703Z,24.70
2017-07-23T10:21:06.246Z,24.20
2017-07-23T10:23:34.267Z,24.10
2017-07-23T10:26:02.287Z,24.20
2017-07-23T10:28:33.671Z,24.50
2017-07-23T10:31:08.939Z,25.40
2017-07-23T10:33:48.011Z,26.10
2017-07-23T10:36:18.799Z,26.10
2017-07-23T10:38:50.335Z,26.40
2017-07-23T10:41:18.361Z,26.40
2017-07-23T10:43:46.383Z,25.60
2017-07-23T10:46:14.415Z,25.40
2017-07-23T10:48:42.447Z,25.40
2017-07-23T10:51:10.484Z,24.70
2017-07-23T10:53:39.943Z,23.80
2017-07-23T10:56:07.967Z,23.60
2017-07-23T10:58:36.000Z,23.10
2017-07-23T11:01:05.943Z,23.10
2017-07-23T11:03:34.879Z,23.20
2017-07-23T11:06:02.915Z,23.70
2017-07-23T11:08:31.867Z,23.40
2017-07-23T11:11:00.663Z,23.00
2017-07-23T11:13:28.682Z,23.00
2017-07-23T11:15:56.718Z,23.10
2017-07-23T11:18:26.502Z,23.20
2017-07-23T11:21:02.352Z,23.10
2017-07-23T11:23:31.343Z,23.20
2017-07-23T11:25:59.360Z,23.60
2017-07-23T11:28:27.403Z,24.00
2017-07-23T11:30:56.319Z,23.40
2017-07-23T11:33:24.339Z,23.10
2017-07-23T11:36:00.579Z,22.90
2017-07-23T11:38:28.615Z,23.10
2017-07-23T11:41:02.387Z,23.30
2017-07-23T11:43:33.151Z,23.60
2017-07-23T11:46:01.183Z,23.60
2017-07-23T11:48:29.256Z,24.20
2017-07-23T11:50:57.273Z,25.00
2017-07-23T11:53:25.294Z,25.20
2017-07-23T11:55:54.299Z,24.70
2017-07-23T11:58:22.331Z,24.20
2017-07-23T12:00:54.699Z,23.80
2017-07-23T12:03:26.271Z,23.90
2017-07-23T12:05:59.687Z,23.90
2017-07-23T12:08:27.703Z,24.60
2017-07-23T12:10:58.899Z,25.60
2017-07-23T12:13:28.826Z,26.10
2017-07-23T12:15:59.542Z,27.40
2017-07-23T12:18:28.458Z,27.40
2017-07-23T12:20:59.197Z,26.40
2017-07-23T12:23:29.874Z,25.50
2017-07-23T12:25:57.902Z,25.50
2017-07-23T12:28:25.942Z,25.10
2017-07-23T12:30:58.199Z,24.60
2017-07-23T12:33:29.755Z,24.20
2017-07-23T12:35:57.782Z,23.90
2017-07-23T12:38:27.698Z,23.60
2017-07-23T12:41:00.750Z,23.20
2017-07-23T12:43:35.226Z,23.40
2017-07-23T12:46:08.950Z,23.30
2017-07-23T12:48:37.955Z,23.50
2017-07-23T12:51:13.504Z,23.60
2017-07-23T12:53:41.523Z,23.60
2017-07-23T12:56:10.566Z,23.70
2017-07-23T12:58:40.790Z,23.90
2017-07-23T13:01:16.723Z,23.90
2017-07-23T13:03:45.756Z,23.90
2017-07-23T13:06:27.982Z,23.50
2017-07-23T13:08:56.042Z,23.50
2017-07-23T13:11:24.819Z,24.90
2017-07-23T13:13:57.322Z,24.90
2017-07-23T13:16:29.022Z,26.20
2017-07-23T13:18:57.070Z,27.50
2017-07-23T13:21:27.010Z,28.30
2017-07-23T13:23:55.066Z,27.90
2017-07-23T13:26:23.094Z,27.80
2017-07-23T13:28:51.118Z,28.40
2017-07-23T13:31:21.026Z,27.90
2017-07-23T13:33:50.023Z,27.40
2017-07-23T13:36:22.190Z,26.90
2017-07-23T13:38:52.202Z,26.60
2017-07-23T13:41:23.329Z,26.40
2017-07-23T13:43:51.390Z,26.30
2017-07-23T13:46:21.338Z,26.30
2017-07-23T13:48:52.394Z,25.90
2017-07-23T13:51:21.182Z,25.00
2017-07-23T13:53:49.970Z,24.10
2017-07-23T13:56:22.046Z,24.10
2017-07-23T13:58:51.826Z,23.30
2017-07-23T14:01:23.390Z,23.30
2017-07-23T14:03:51.406Z,23.30
2017-07-23T14:06:21.386Z,23.60
2017-07-23T14:08:50.179Z,24.50
2017-07-23T14:11:18.990Z,24.50
2017-07-23T14:13:47.010Z,24.50
2017-07-23T14:16:15.050Z,24.80
2017-07-23T14:18:54.914Z,25.20
2017-07-23T14:21:26.826Z,26.10
2017-07-23T14:23:59.473Z,26.50
2017-07-23T14:26:28.421Z,26.00
2017-07-23T14:28:57.350Z,25.30
2017-07-23T14:31:27.386Z,25.40
2017-07-23T14:33:58.134Z,26.90
2017-07-23T14:36:26.954Z,27.40
2017-07-23T14:38:54.974Z,27.40
2017-07-23T14:41:23.002Z,27.80
2017-07-23T14:43:51.789Z,25.50
2017-07-23T14:46:21.741Z,25.40
2017-07-23T14:48:55.549Z,25.30
2017-07-23T14:51:23.565Z,25.10
2017-07-23T14:53:54.350Z,24.90
2017-07-23T14:56:25.717Z,25.10
2017-07-23T14:58:54.690Z,25.40
2017-07-23T15:01:23.605Z,25.40
2017-07-23T15:03:52.405Z,25.30
2017-07-23T15:06:20.430Z,25.30
2017-07-23T15:08:49.355Z,26.00
2017-07-23T15:11:17.389Z,27.10
2017-07-23T15:13:49.208Z,27.50
2017-07-23T15:16:17.249Z,27.40
2017-07-23T15:18:47.953Z,26.10
2017-07-23T15:21:19.108Z,26.00
2017-07-23T15:23:47.132Z,26.00
2017-07-23T15:26:15.153Z,26.30
2017-07-23T15:28:44.156Z,27.20
2017-07-23T15:31:12.141Z,26.90
2017-07-23T15:33:40.172Z,25.60
2017-07-23T15:36:18.668Z,25.20
2017-07-23T15:39:03.252Z,24.60
2017-07-23T15:41:33.192Z,24.30
2017-07-23T15:44:08.097Z,23.70
2017-07-23T15:46:38.112Z,23.60
2017-07-23T15:49:06.136Z,23.60
2017-07-23T15:51:34.171Z,23.50
2017-07-23T15:54:12.472Z,23.30
2017-07-23T15:56:44.228Z,23.00
2017-07-23T15:59:16.462Z,23.10
2017-07-23T16:01:45.632Z,23.20
2017-07-23T16:04:14.580Z,23.20
2017-07-23T16:06:42.605Z,23.50
2017-07-23T16:09:12.520Z,23.40
2017-07-23T16:11:40.540Z,23.40
2017-07-23T16:14:08.566Z,23.40
2017-07-23T16:16:44.012Z,23.60
2017-07-23T16:19:12.047Z,23.80
2017-07-23T16:21:41.828Z,23.60
2017-07-23T16:24:13.292Z,23.60
2017-07-23T16:26:42.085Z,23.90
2017-07-23T16:29:13.833Z,24.90
2017-07-23T16:31:54.960Z,24.80
2017-07-23T16:34:25.784Z,25.40
2017-07-23T16:36:57.884Z,26.20
2017-07-23T16:39:25.924Z,26.50
2017-07-23T16:41:54.847Z,26.00
2017-07-23T16:44:29.023Z,25.10
2017-07-23T16:47:03.280Z,24.50
2017-07-23T16:49:31.307Z,24.40
2017-07-23T16:51:59.329Z,24.50
2017-07-23T16:54:29.240Z,24.10
2017-07-23T16:57:01.016Z,23.80
2017-07-23T16:59:29.932Z,23.40
2017-07-23T17:01:57.960Z,23.20
2017-07-23T17:04:31.264Z,23.10
2017-07-23T17:07:24.920Z,22.70
2017-07-23T17:09:53.952Z,22.50
2017-07-23T17:12:22.740Z,22.40
2017-07-23T17:15:05.576Z,22.40
2017-07-23T17:17:40.428Z,22.60
2017-07-23T17:20:10.616Z,22.60
2017-07-23T17:22:38.643Z,22.50
2017-07-23T17:25:10.736Z,22.60
2017-07-23T17:27:57.592Z,22.40
2017-07-23T17:30:28.783Z,22.20
2017-07-23T17:32:57.583Z,21.70
2017-07-23T17:35:28.317Z,21.50
2017-07-23T17:37:59.935Z,21.50
2017-07-23T17:40:27.971Z,21.50
2017-07-23T17:42:57.887Z,21.40
2017-07-23T17:45:29.828Z,21.40
2017-07-23T17:47:57.863Z,21.50
2017-07-23T17:50:27.808Z,21.50
2017-07-23T17:52:55.839Z,21.40
2017-07-23T17:55:23.872Z,21.20
2017-07-23T17:57:52.807Z,21.10
2017-07-23T18:00:27.371Z,20.90
2017-07-23T18:02:55.363Z,20.70
2017-07-23T18:05:23.383Z,20.50
2017-07-23T18:07:58.387Z,20.40
2017-07-23T18:10:27.403Z,20.30
2017-07-23T18:12:59.791Z,20.20
2017-07-23T18:15:28.595Z,20.00
2017-07-23T18:17:56.635Z,20.00
2017-07-23T18:20:29.879Z,20.00
2017-07-23T18:22:58.819Z,20.00
2017-07-23T18:25:31.127Z,20.10
2017-07-23T18:28:01.115Z,20.00
2017-07-23T18:30:39.408Z,20.00
2017-07-23T18:33:18.107Z,20.00
2017-07-23T18:36:06.135Z,20.00
2017-07-23T18:38:35.055Z,19.90
2017-07-23T18:41:06.915Z,19.90
2017-07-23T18:43:41.546Z,19.90
2017-07-23T18:46:14.134Z,19.80
2017-07-23T18:48:46.802Z,19.70
2017-07-23T18:51:14.843Z,19.70
2017-07-23T18:53:49.294Z,19.60
2017-07-23T18:56:22.892Z,19.60
2017-07-23T18:58:55.710Z,19.60
2017-07-23T19:01:27.343Z,19.50
2017-07-23T19:03:56.322Z,19.50
2017-07-23T19:06:27.566Z,19.50
2017-07-23T19:08:55.594Z,19.40
2017-07-23T19:11:24.530Z,19.40
2017-07-23T19:14:02.160Z,19.40
2017-07-23T19:33:49.046Z,18.90
2017-07-23T19:36:17.863Z,18.90
2017-07-23T19:44:34.027Z,18.90
2017-07-23T19:47:05.183Z,18.90
2017-07-23T19:49:35.139Z,18.90
2017-07-23T19:52:04.079Z,18.90
2017-07-23T19:54:33.009Z,18.80
2017-07-23T19:57:01.054Z,18.80
2017-07-23T19:59:29.082Z,18.70
2017-07-23T20:02:03.083Z,18.70
2017-07-23T20:04:33.010Z,18.60
2017-07-23T20:07:02.965Z,18.50
2017-07-23T20:09:36.610Z,18.40
2017-07-23T20:12:08.218Z,18.20
2017-07-23T20:14:36.262Z,18.00
2017-07-23T20:17:04.278Z,17.80
2017-07-23T20:19:35.434Z,17.60
2017-07-23T20:22:03.461Z,17.40
2017-07-23T20:24:32.395Z,17.30
2017-07-23T20:27:01.462Z,17.20
2017-07-23T20:29:31.198Z,17.20
2017-07-23T20:32:01.142Z,17.20
2017-07-23T20:34:31.099Z,17.20
2017-07-23T20:36:59.913Z,17.30
2017-07-23T20:39:27.954Z,17.30
2017-07-23T20:41:57.018Z,17.50
2017-07-23T20:44:25.057Z,17.40
2017-07-23T20:46:53.094Z,17.50
2017-07-23T20:49:21.889Z,17.50
2017-07-23T20:51:50.874Z,17.40
2017-07-23T20:54:32.242Z,17.50
2017-07-23T20:57:07.045Z,17.50
2017-07-23T20:59:35.093Z,17.50
2017-07-23T21:02:06.598Z,17.50
2017-07-23T21:04:35.422Z,17.50
2017-07-23T21:07:03.473Z,17.40
2017-07-23T21:09:31.498Z,17.50
2017-07-23T21:11:59.546Z,17.50
2017-07-23T21:14:27.606Z,17.40
2017-07-23T21:16:55.631Z,17.40
2017-07-23T21:19:27.305Z,17.40
2017-07-23T21:21:56.106Z,17.30
2017-07-23T21:24:24.145Z,17.20
2017-07-23T21:26:55.266Z,17.20
2017-07-23T21:29:29.721Z,17.00
2017-07-23T21:31:57.745Z,16.90
2017-07-23T21:34:29.333Z,16.70
2017-07-23T21:37:03.005Z,16.50
2017-07-23T21:39:31.042Z,16.30
2017-07-23T21:42:03.406Z,16.30
2017-07-23T21:44:32.354Z,16.30
2017-07-23T21:47:03.829Z,16.40
2017-07-23T21:49:31.874Z,16.40
2017-07-23T21:52:05.405Z,16.30
2017-07-23T21:54:35.154Z,16.10
2017-07-23T21:57:07.813Z,16.10
2017-07-23T21:59:35.845Z,16.00
2017-07-23T22:02:07.105Z,15.90
2017-07-23T22:04:35.905Z,15.60
2017-07-23T22:07:11.202Z,15.40
2017-07-23T22:09:39.245Z,15.40
2017-07-23T22:12:09.213Z,15.20
2017-07-23T22:14:41.705Z,15.10
2017-07-23T22:17:16.242Z,15.10
2017-07-23T22:19:44.295Z,15.10
2017-07-23T22:22:13.101Z,15.10
2017-07-23T22:24:47.493Z,15.10
2017-07-23T22:27:20.285Z,14.80
2017-07-23T22:29:51.129Z,14.80
2017-07-23T22:32:25.329Z,14.70
2017-07-23T22:34:54.433Z,14.70
2017-07-23T22:37:46.101Z,14.60
2017-07-23T22:40:14.160Z,14.50
2017-07-23T22:42:42.197Z,14.40
2017-07-23T22:45:31.121Z,14.30
2017-07-23T22:48:05.320Z,14.20
2017-07-23T22:50:35.285Z,14.00
2017-07-23T22:53:05.081Z,13.80
2017-07-23T22:55:33.924Z,13.80
2017-07-23T22:58:01.980Z,13.70
2017-07-23T23:00:37.505Z,13.60
2017-07-23T23:03:07.466Z,13.50
2017-07-23T23:05:35.508Z,13.50
2017-07-23T23:08:05.441Z,13.50
2017-07-23T23:10:35.438Z,13.50
2017-07-23T23:13:05.352Z,13.50
2017-07-23T23:15:34.328Z,13.60
2017-07-23T23:18:06.448Z,13.80
2017-07-23T23:20:36.376Z,13.80
2017-07-23T23:23:06.425Z,13.90
2017-07-23T23:25:38.380Z,14.00
2017-07-23T23:28:07.212Z,14.00
2017-07-23T23:30:36.184Z,13.90
2017-07-23T23:33:06.129Z,14.00
2017-07-23T23:35:37.244Z,14.00
2017-07-23T23:38:05.284Z,13.80
2017-07-23T23:40:36.544Z,13.60
2017-07-23T23:43:06.344Z,13.50
2017-07-23T23:45:37.715Z,13.50
2017-07-23T23:48:06.497Z,13.60
2017-07-23T23:50:35.472Z,13.60
2017-07-23T23:53:07.503Z,13.70
2017-07-23T23:55:41.231Z,13.70
2017-07-23T23:58:19.732Z,13.60
